sensor_id;sensor_type;location;lat;lon;timestamp;pressure;altitude;pressure_sealevel;temperature;humidity
59168;BME280;70412;55.048;73.268;2023-11-19T00:01:59;99488.34;;;-9.81;100.00
59168;BME280;70412;55.048;73.268;2023-11-19T00:05:01;99502.72;;;-9.95;100.00
59168;BME280;70412;55.048;73.268;2023-11-19T00:08:04;99506.13;;;-10.04;100.00
59168;BME280;70412;55.048;73.268;2023-11-19T00:11:07;99528.97;;;-10.05;100.00
59168;BME280;70412;55.048;73.268;2023-11-19T00:14:09;99539.91;;;-10.13;100.00
59168;BME280;70412;55.048;73.268;2023-11-19T00:17:12;99555.13;;;-10.11;100.00
59168;BME280;70412;55.048;73.268;2023-11-19T00:20:18;99551.75;;;-10.12;100.00
59168;BME280;70412;55.048;73.268;2023-11-19T00:23:21;99562.75;;;-10.08;100.00
59168;BME280;70412;55.048;73.268;2023-11-19T00:26:23;99560.22;;;-10.13;100.00
59168;BME280;70412;55.048;73.268;2023-11-19T00:29:31;99561.91;;;-10.12;100.00
59168;BME280;70412;55.048;73.268;2023-11-19T00:32:33;99621.88;;;-10.27;100.00
59168;BME280;70412;55.048;73.268;2023-11-19T00:35:35;99620.19;;;-10.31;100.00
59168;BME280;70412;55.048;73.268;2023-11-19T00:38:37;99621.03;;;-10.40;100.00
59168;BME280;70412;55.048;73.268;2023-11-19T00:41:40;99642.88;;;-10.57;100.00
59168;BME280;70412;55.048;73.268;2023-11-19T00:44:45;99648.81;;;-10.58;100.00
59168;BME280;70412;55.048;73.268;2023-11-19T00:47:47;99622.59;;;-10.66;100.00
59168;BME280;70412;55.048;73.268;2023-11-19T00:50:50;99666.50;;;-10.71;100.00
59168;BME280;70412;55.048;73.268;2023-11-19T00:53:52;99687.63;;;-10.72;100.00
59168;BME280;70412;55.048;73.268;2023-11-19T00:56:55;99689.25;;;-10.77;100.00
59168;BME280;70412;55.048;73.268;2023-11-19T00:59:58;99709.41;;;-10.92;100.00
59168;BME280;70412;55.048;73.268;2023-11-19T01:03:00;99722.13;;;-10.89;100.00
59168;BME280;70412;55.048;73.268;2023-11-19T01:06:03;99741.59;;;-10.82;100.00
59168;BME280;70412;55.048;73.268;2023-11-19T01:09:06;99765.97;;;-10.93;100.00
59168;BME280;70412;55.048;73.268;2023-11-19T01:12:10;99763.44;;;-10.94;100.00
59168;BME280;70412;55.048;73.268;2023-11-19T01:15:13;99774.38;;;-11.00;100.00
59168;BME280;70412;55.048;73.268;2023-11-19T01:18:15;99790.41;;;-11.03;100.00
59168;BME280;70412;55.048;73.268;2023-11-19T01:21:18;99801.41;;;-10.99;100.00
59168;BME280;70412;55.048;73.268;2023-11-19T01:24:21;99803.06;;;-11.04;100.00
59168;BME280;70412;55.048;73.268;2023-11-19T01:27:24;99817.34;;;-11.08;100.00
59168;BME280;70412;55.048;73.268;2023-11-19T01:30:26;99826.69;;;-11.05;100.00
59168;BME280;70412;55.048;73.268;2023-11-19T01:33:29;99791.00;;;-11.33;100.00
59168;BME280;70412;55.048;73.268;2023-11-19T01:36:31;99828.97;;;-11.33;100.00
59168;BME280;70412;55.048;73.268;2023-11-19T01:39:34;99850.19;;;-11.21;100.00
59168;BME280;70412;55.048;73.268;2023-11-19T01:42:40;99858.63;;;-11.21;100.00
59168;BME280;70412;55.048;73.268;2023-11-19T01:45:42;99878.03;;;-11.20;100.00
59168;BME280;70412;55.048;73.268;2023-11-19T01:48:46;99870.44;;;-11.21;100.00
59168;BME280;70412;55.048;73.268;2023-11-19T01:51:49;99829.50;;;-11.63;100.00
59168;BME280;70412;55.048;73.268;2023-11-19T01:54:53;99889.88;;;-11.16;100.00
59168;BME280;70412;55.048;73.268;2023-11-19T01:57:59;99899.97;;;-11.20;100.00
59168;BME280;70412;55.048;73.268;2023-11-19T02:01:05;99907.44;;;-11.33;100.00
59168;BME280;70412;55.048;73.268;2023-11-19T02:04:15;99926.84;;;-11.33;100.00
59168;BME280;70412;55.048;73.268;2023-11-19T02:07:19;99928.59;;;-11.26;100.00
59168;BME280;70412;55.048;73.268;2023-11-19T02:10:25;99953.06;;;-11.26;100.00
59168;BME280;70412;55.048;73.268;2023-11-19T02:13:28;99959.03;;;-11.23;100.00
59168;BME280;70412;55.048;73.268;2023-11-19T02:16:33;99977.63;;;-11.16;100.00
59168;BME280;70412;55.048;73.268;2023-11-19T02:19:36;99981.09;;;-11.08;100.00
59168;BME280;70412;55.048;73.268;2023-11-19T02:22:38;99966.66;;;-11.18;100.00
59168;BME280;70412;55.048;73.268;2023-11-19T02:25:41;99995.34;;;-11.19;100.00
59168;BME280;70412;55.048;73.268;2023-11-19T02:28:43;99995.16;;;-11.35;100.00
59168;BME280;70412;55.048;73.268;2023-11-19T02:31:46;100010.31;;;-11.39;100.00
59168;BME280;70412;55.048;73.268;2023-11-19T02:34:49;100003.47;;;-11.45;100.00
59168;BME280;70412;55.048;73.268;2023-11-19T02:37:51;100020.50;;;-11.32;100.00
59168;BME280;70412;55.048;73.268;2023-11-19T02:40:53;100030.69;;;-11.28;100.00
59168;BME280;70412;55.048;73.268;2023-11-19T02:43:56;100035.69;;;-11.33;100.00
59168;BME280;70412;55.048;73.268;2023-11-19T02:46:58;100063.47;;;-11.39;100.00
59168;BME280;70412;55.048;73.268;2023-11-19T02:50:01;100067.59;;;-11.43;100.00
59168;BME280;70412;55.048;73.268;2023-11-19T02:53:04;100050.59;;;-11.53;100.00
59168;BME280;70412;55.048;73.268;2023-11-19T02:56:08;100060.97;;;-11.36;100.00
59168;BME280;70412;55.048;73.268;2023-11-19T02:59:21;100084.66;;;-11.29;100.00
59168;BME280;70412;55.048;73.268;2023-11-19T03:02:29;100088.03;;;-11.30;100.00
59168;BME280;70412;55.048;73.268;2023-11-19T03:05:35;100086.16;;;-11.44;100.00
59168;BME280;70412;55.048;73.268;2023-11-19T03:08:38;100100.56;;;-11.40;100.00
59168;BME280;70412;55.048;73.268;2023-11-19T03:11:40;100124.19;;;-11.39;100.00
59168;BME280;70412;55.048;73.268;2023-11-19T03:14:44;100136.88;;;-11.38;100.00
59168;BME280;70412;55.048;73.268;2023-11-19T03:17:49;100145.28;;;-11.40;100.00
59168;BME280;70412;55.048;73.268;2023-11-19T03:20:52;100146.88;;;-11.44;100.00
59168;BME280;70412;55.048;73.268;2023-11-19T03:23:54;100169.66;;;-11.45;100.00
59168;BME280;70412;55.048;73.268;2023-11-19T03:26:57;100180.56;;;-11.48;100.00
59168;BME280;70412;55.048;73.268;2023-11-19T03:29:59;100177.13;;;-11.53;100.00
59168;BME280;70412;55.048;73.268;2023-11-19T03:33:01;100149.00;;;-11.70;100.00
59168;BME280;70412;55.048;73.268;2023-11-19T03:36:05;100199.06;;;-11.52;100.00
59168;BME280;70412;55.048;73.268;2023-11-19T03:39:08;100210.13;;;-11.47;100.00
59168;BME280;70412;55.048;73.268;2023-11-19T03:42:10;100217.69;;;-11.48;100.00
59168;BME280;70412;55.048;73.268;2023-11-19T03:45:15;100217.91;;;-11.35;100.00
59168;BME280;70412;55.048;73.268;2023-11-19T03:48:18;100238.00;;;-11.44;100.00
59168;BME280;70412;55.048;73.268;2023-11-19T03:51:20;100247.41;;;-11.37;100.00
59168;BME280;70412;55.048;73.268;2023-11-19T03:54:23;100238.81;;;-11.46;100.00
59168;BME280;70412;55.048;73.268;2023-11-19T03:57:25;100260.94;;;-11.35;100.00
59168;BME280;70412;55.048;73.268;2023-11-19T04:00:28;100270.31;;;-11.29;100.00
59168;BME280;70412;55.048;73.268;2023-11-19T04:03:30;100237.09;;;-11.47;100.00
59168;BME280;70412;55.048;73.268;2023-11-19T04:06:33;100282.19;;;-11.26;100.00
59168;BME280;70412;55.048;73.268;2023-11-19T04:09:36;100318.88;;;-11.50;100.00
59168;BME280;70412;55.048;73.268;2023-11-19T04:12:39;100312.28;;;-11.42;100.00
59168;BME280;70412;55.048;73.268;2023-11-19T04:15:42;100312.47;;;-11.33;100.00
59168;BME280;70412;55.048;73.268;2023-11-19T04:18:45;100329.34;;;-11.32;100.00
59168;BME280;70412;55.048;73.268;2023-11-19T04:21:47;100318.03;;;-11.50;100.00
59168;BME280;70412;55.048;73.268;2023-11-19T04:24:50;100338.31;;;-11.49;100.00
59168;BME280;70412;55.048;73.268;2023-11-19T04:27:52;100361.03;;;-11.52;100.00
59168;BME280;70412;55.048;73.268;2023-11-19T04:30:55;100357.47;;;-11.60;100.00
59168;BME280;70412;55.048;73.268;2023-11-19T04:33:57;100366.34;;;-11.40;100.00
59168;BME280;70412;55.048;73.268;2023-11-19T04:37:00;100374.91;;;-11.32;100.00
59168;BME280;70412;55.048;73.268;2023-11-19T04:40:09;100371.47;;;-11.37;100.00
59168;BME280;70412;55.048;73.268;2023-11-19T04:43:12;100399.81;;;-11.53;100.00
59168;BME280;70412;55.048;73.268;2023-11-19T04:46:14;100396.72;;;-11.40;100.00
59168;BME280;70412;55.048;73.268;2023-11-19T04:49:17;100388.47;;;-11.29;100.00
59168;BME280;70412;55.048;73.268;2023-11-19T04:52:20;100391.72;;;-11.37;100.00
59168;BME280;70412;55.048;73.268;2023-11-19T04:55:22;100410.38;;;-11.32;100.00
59168;BME280;70412;55.048;73.268;2023-11-19T04:58:25;100406.59;;;-11.52;100.00
59168;BME280;70412;55.048;73.268;2023-11-19T05:01:27;100433.75;;;-11.43;100.00
59168;BME280;70412;55.048;73.268;2023-11-19T05:04:30;100439.84;;;-11.35;100.00
59168;BME280;70412;55.048;73.268;2023-11-19T05:07:32;100440.50;;;-11.42;100.00
59168;BME280;70412;55.048;73.268;2023-11-19T05:10:35;100429.00;;;-11.26;100.00
59168;BME280;70412;55.048;73.268;2023-11-19T05:13:38;100461.09;;;-11.25;100.00
59168;BME280;70412;55.048;73.268;2023-11-19T05:16:41;100463.09;;;-11.09;100.00
59168;BME280;70412;55.048;73.268;2023-11-19T05:19:45;100467.16;;;-11.17;100.00
59168;BME280;70412;55.048;73.268;2023-11-19T05:22:47;100450.22;;;-11.20;100.00
59168;BME280;70412;55.048;73.268;2023-11-19T05:25:50;100473.09;;;-11.15;100.00
59168;BME280;70412;55.048;73.268;2023-11-19T05:28:52;100483.97;;;-11.22;100.00
59168;BME280;70412;55.048;73.268;2023-11-19T05:31:55;100490.13;;;-11.08;100.00
59168;BME280;70412;55.048;73.268;2023-11-19T05:34:57;100495.38;;;-10.99;100.00
59168;BME280;70412;55.048;73.268;2023-11-19T05:38:00;100494.56;;;-10.98;100.00
59168;BME280;70412;55.048;73.268;2023-11-19T05:41:03;100499.41;;;-11.09;100.00
59168;BME280;70412;55.048;73.268;2023-11-19T05:44:06;100493.31;;;-11.18;100.00
59168;BME280;70412;55.048;73.268;2023-11-19T05:47:09;100492.94;;;-10.93;100.00
59168;BME280;70412;55.048;73.268;2023-11-19T05:50:11;100510.38;;;-11.08;100.00
59168;BME280;70412;55.048;73.268;2023-11-19T05:53:14;100522.63;;;-10.89;100.00
59168;BME280;70412;55.048;73.268;2023-11-19T05:56:17;100533.41;;;-10.55;100.00
59168;BME280;70412;55.048;73.268;2023-11-19T05:59:23;100532.72;;;-10.45;100.00
59168;BME280;70412;55.048;73.268;2023-11-19T06:02:32;100541.06;;;-10.52;100.00
59168;BME280;70412;55.048;73.268;2023-11-19T06:05:34;100521.16;;;-10.76;100.00
59168;BME280;70412;55.048;73.268;2023-11-19T06:08:37;100547.97;;;-10.42;100.00
59168;BME280;70412;55.048;73.268;2023-11-19T06:11:39;100566.06;;;-10.24;100.00
59168;BME280;70412;55.048;73.268;2023-11-19T06:14:45;100566.78;;;-10.31;100.00
59168;BME280;70412;55.048;73.268;2023-11-19T06:17:47;100564.84;;;-10.44;100.00
59168;BME280;70412;55.048;73.268;2023-11-19T06:20:50;100544.94;;;-10.69;100.00
59168;BME280;70412;55.048;73.268;2023-11-19T06:23:52;100582.50;;;-10.50;100.00
59168;BME280;70412;55.048;73.268;2023-11-19T06:26:55;100591.66;;;-10.57;100.00
59168;BME280;70412;55.048;73.268;2023-11-19T06:29:57;100602.81;;;-10.47;100.00
59168;BME280;70412;55.048;73.268;2023-11-19T06:32:59;100591.53;;;-10.63;100.00
59168;BME280;70412;55.048;73.268;2023-11-19T06:36:01;100600.88;;;-10.60;100.00
59168;BME280;70412;55.048;73.268;2023-11-19T06:39:04;100610.16;;;-10.61;100.00
59168;BME280;70412;55.048;73.268;2023-11-19T06:42:08;100608.94;;;-10.80;100.00
59168;BME280;70412;55.048;73.268;2023-11-19T06:45:11;100603.84;;;-10.80;100.00
59168;BME280;70412;55.048;73.268;2023-11-19T06:48:14;100589.66;;;-10.73;100.00
59168;BME280;70412;55.048;73.268;2023-11-19T06:51:17;100627.91;;;-11.00;100.00
59168;BME280;70412;55.048;73.268;2023-11-19T06:54:19;100639.31;;;-10.81;100.00
59168;BME280;70412;55.048;73.268;2023-11-19T06:57:22;100644.38;;;-10.81;100.00
59168;BME280;70412;55.048;73.268;2023-11-19T07:00:25;100637.44;;;-10.90;100.00
59168;BME280;70412;55.048;73.268;2023-11-19T07:03:28;100662.69;;;-10.93;100.00
59168;BME280;70412;55.048;73.268;2023-11-19T07:06:31;100654.91;;;-11.02;100.00
59168;BME280;70412;55.048;73.268;2023-11-19T07:09:36;100659.44;;;-10.87;100.00
59168;BME280;70412;55.048;73.268;2023-11-19T10:00:21;100819.94;;;-11.83;100.00
59168;BME280;70412;55.048;73.268;2023-11-19T10:03:26;100895.56;;;-11.34;100.00
59168;BME280;70412;55.048;73.268;2023-11-19T10:06:29;100904.97;;;-11.28;100.00
59168;BME280;70412;55.048;73.268;2023-11-19T10:09:31;100902.34;;;-11.33;100.00
59168;BME280;70412;55.048;73.268;2023-11-19T10:12:34;100875.84;;;-11.44;100.00
59168;BME280;70412;55.048;73.268;2023-11-19T10:15:37;100907.44;;;-11.31;100.00
59168;BME280;70412;55.048;73.268;2023-11-19T10:18:47;100903.84;;;-11.39;100.00
59168;BME280;70412;55.048;73.268;2023-11-19T10:21:52;100915.72;;;-11.37;100.00
59168;BME280;70412;55.048;73.268;2023-11-19T10:24:54;100929.22;;;-11.38;100.00
59168;BME280;70412;55.048;73.268;2023-11-19T10:27:57;100931.53;;;-11.44;100.00
59168;BME280;70412;55.048;73.268;2023-11-19T10:31:00;100943.59;;;-11.37;100.00
59168;BME280;70412;55.048;73.268;2023-11-19T10:34:02;100937.44;;;-11.45;100.00
59168;BME280;70412;55.048;73.268;2023-11-19T10:37:05;100958.69;;;-11.40;100.00
59168;BME280;70412;55.048;73.268;2023-11-19T10:40:08;100951.63;;;-11.50;100.00
59168;BME280;70412;55.048;73.268;2023-11-19T10:43:12;100936.94;;;-11.62;100.00
59168;BME280;70412;55.048;73.268;2023-11-19T10:46:15;100966.09;;;-11.46;100.00
59168;BME280;70412;55.048;73.268;2023-11-19T10:49:22;100955.78;;;-11.52;100.00
59168;BME280;70412;55.048;73.268;2023-11-19T10:52:25;100952.00;;;-11.66;100.00
59168;BME280;70412;55.048;73.268;2023-11-19T10:55:34;100946.94;;;-11.66;100.00
59168;BME280;70412;55.048;73.268;2023-11-19T10:58:37;100966.66;;;-11.56;100.00
59168;BME280;70412;55.048;73.268;2023-11-19T11:01:48;100979.34;;;-11.54;100.00
59168;BME280;70412;55.048;73.268;2023-11-19T11:04:55;100975.97;;;-11.55;100.00
59168;BME280;70412;55.048;73.268;2023-11-19T11:07:58;100962.31;;;-11.58;100.00
59168;BME280;70412;55.048;73.268;2023-11-19T11:11:08;100981.84;;;-11.56;100.00
59168;BME280;70412;55.048;73.268;2023-11-19T11:14:14;100958.56;;;-11.73;100.00
59168;BME280;70412;55.048;73.268;2023-11-19T11:17:18;100957.50;;;-11.79;100.00
59168;BME280;70412;55.048;73.268;2023-11-19T11:20:22;100978.84;;;-11.71;100.00
59168;BME280;70412;55.048;73.268;2023-11-19T11:27:03;100989.25;;;-11.89;100.00
59168;BME280;70412;55.048;73.268;2023-11-19T11:31:12;100996.69;;;-11.94;100.00
59168;BME280;70412;55.048;73.268;2023-11-19T11:37:39;100990.63;;;-11.99;100.00
59168;BME280;70412;55.048;73.268;2023-11-19T11:41:22;100994.81;;;-11.99;100.00
59168;BME280;70412;55.048;73.268;2023-11-19T11:48:12;100984.88;;;-12.20;100.00
59168;BME280;70412;55.048;73.268;2023-11-19T11:51:14;101007.25;;;-12.07;100.00
59168;BME280;70412;55.048;73.268;2023-11-19T11:57:23;101019.66;;;-12.13;100.00
59168;BME280;70412;55.048;73.268;2023-11-19T12:00:32;101016.13;;;-12.18;100.00
59168;BME280;70412;55.048;73.268;2023-11-19T12:03:39;101016.09;;;-12.19;100.00
59168;BME280;70412;55.048;73.268;2023-11-19T12:06:41;101024.44;;;-12.22;100.00
59168;BME280;70412;55.048;73.268;2023-11-19T12:09:48;101026.16;;;-12.21;100.00
59168;BME280;70412;55.048;73.268;2023-11-19T12:12:57;101022.78;;;-12.21;100.00
59168;BME280;70412;55.048;73.268;2023-11-19T12:19:15;101032.03;;;-12.22;100.00
59168;BME280;70412;55.048;73.268;2023-11-19T12:22:17;101042.91;;;-12.25;100.00
59168;BME280;70412;55.048;73.268;2023-11-19T12:25:23;101046.19;;;-12.26;100.00
59168;BME280;70412;55.048;73.268;2023-11-19T12:28:39;101058.78;;;-12.27;100.00
59168;BME280;70412;55.048;73.268;2023-11-19T12:31:44;101053.75;;;-12.27;100.00
59168;BME280;70412;55.048;73.268;2023-11-19T12:34:46;101052.03;;;-12.28;100.00
59168;BME280;70412;55.048;73.268;2023-11-19T12:37:50;101068.81;;;-12.30;100.00
59168;BME280;70412;55.048;73.268;2023-11-19T12:41:09;101073.88;;;-12.30;100.00
59168;BME280;70412;55.048;73.268;2023-11-19T12:44:18;101070.91;;;-12.42;100.00
59168;BME280;70412;55.048;73.268;2023-11-19T12:47:24;101083.44;;;-12.45;100.00
59168;BME280;70412;55.048;73.268;2023-11-19T12:50:26;101085.06;;;-12.47;100.00
59168;BME280;70412;55.048;73.268;2023-11-19T12:53:56;101088.50;;;-12.45;100.00
59168;BME280;70412;55.048;73.268;2023-11-19T12:57:00;101087.44;;;-12.52;100.00
59168;BME280;70412;55.048;73.268;2023-11-19T13:00:03;101090.53;;;-12.59;100.00
59168;BME280;70412;55.048;73.268;2023-11-19T13:03:06;101095.59;;;-12.59;100.00
59168;BME280;70412;55.048;73.268;2023-11-19T13:06:13;101095.47;;;-12.62;100.00
59168;BME280;70412;55.048;73.268;2023-11-19T13:09:34;101077.00;;;-12.85;100.00
59168;BME280;70412;55.048;73.268;2023-11-19T13:12:36;101100.81;;;-12.78;100.00
59168;BME280;70412;55.048;73.268;2023-11-19T13:15:39;101099.31;;;-12.73;100.00
59168;BME280;70412;55.048;73.268;2023-11-19T13:18:42;101099.81;;;-12.83;100.00
59168;BME280;70412;55.048;73.268;2023-11-19T13:21:45;101081.59;;;-12.97;100.00
59168;BME280;70412;55.048;73.268;2023-11-19T13:24:48;101107.22;;;-12.88;100.00
59168;BME280;70412;55.048;73.268;2023-11-19T13:27:51;101108.94;;;-12.87;100.00
59168;BME280;70412;55.048;73.268;2023-11-19T13:30:53;101113.22;;;-12.85;100.00
59168;BME280;70412;55.048;73.268;2023-11-19T13:33:56;101111.41;;;-12.89;100.00
59168;BME280;70412;55.048;73.268;2023-11-19T13:37:13;101108.81;;;-12.90;100.00
59168;BME280;70412;55.048;73.268;2023-11-19T13:40:16;101091.25;;;-13.09;100.00
59168;BME280;70412;55.048;73.268;2023-11-19T13:43:18;101108.59;;;-12.96;100.00
59168;BME280;70412;55.048;73.268;2023-11-19T13:46:20;101112.03;;;-12.94;100.00
59168;BME280;70412;55.048;73.268;2023-11-19T13:49:22;101099.75;;;-13.07;100.00
59168;BME280;70412;55.048;73.268;2023-11-19T13:52:27;101104.00;;;-13.06;100.00
59168;BME280;70412;55.048;73.268;2023-11-19T13:55:29;101110.09;;;-13.01;100.00
59168;BME280;70412;55.048;73.268;2023-11-19T13:58:32;101105.03;;;-13.01;100.00
59168;BME280;70412;55.048;73.268;2023-11-19T14:01:34;101115.63;;;-13.10;100.00
59168;BME280;70412;55.048;73.268;2023-11-19T14:04:37;101115.41;;;-13.16;100.00
59168;BME280;70412;55.048;73.268;2023-11-19T14:07:40;101090.31;;;-13.34;100.00
59168;BME280;70412;55.048;73.268;2023-11-19T14:10:42;101124.84;;;-13.33;100.00
59168;BME280;70412;55.048;73.268;2023-11-19T14:13:44;101119.00;;;-13.32;100.00
59168;BME280;70412;55.048;73.268;2023-11-19T14:16:48;101121.44;;;-13.56;100.00
59168;BME280;70412;55.048;73.268;2023-11-19T14:19:51;101002.56;;;-14.27;100.00
59168;BME280;70412;55.048;73.268;2023-11-19T14:22:53;101132.44;;;-13.54;100.00
59168;BME280;70412;55.048;73.268;2023-11-19T14:25:55;101108.31;;;-13.68;100.00
59168;BME280;70412;55.048;73.268;2023-11-19T14:29:00;101132.50;;;-13.52;100.00
59168;BME280;70412;55.048;73.268;2023-11-19T14:32:03;101144.09;;;-13.57;100.00
59168;BME280;70412;55.048;73.268;2023-11-19T14:35:06;101139.47;;;-13.67;100.00
59168;BME280;70412;55.048;73.268;2023-11-19T14:38:09;101142.34;;;-13.79;100.00
59168;BME280;70412;55.048;73.268;2023-11-19T14:41:12;101133.09;;;-13.79;100.00
59168;BME280;70412;55.048;73.268;2023-11-19T14:44:14;101143.88;;;-13.83;100.00
59168;BME280;70412;55.048;73.268;2023-11-19T14:47:17;101137.78;;;-13.88;100.00
59168;BME280;70412;55.048;73.268;2023-11-19T14:50:19;101144.44;;;-13.90;100.00
59168;BME280;70412;55.048;73.268;2023-11-19T14:53:21;101142.56;;;-13.94;100.00
59168;BME280;70412;55.048;73.268;2023-11-19T14:56:24;101138.19;;;-13.98;100.00
59168;BME280;70412;55.048;73.268;2023-11-19T14:59:27;101143.22;;;-13.98;100.00
59168;BME280;70412;55.048;73.268;2023-11-19T15:02:30;101149.88;;;-14.00;100.00
59168;BME280;70412;55.048;73.268;2023-11-19T15:05:32;101139.47;;;-14.08;100.00
59168;BME280;70412;55.048;73.268;2023-11-19T15:08:35;101151.47;;;-14.23;100.00
59168;BME280;70412;55.048;73.268;2023-11-19T15:11:37;101153.91;;;-14.24;100.00
59168;BME280;70412;55.048;73.268;2023-11-19T15:14:39;101155.34;;;-14.29;100.00
59168;BME280;70412;55.048;73.268;2023-11-19T15:17:42;101150.94;;;-14.35;100.00
59168;BME280;70412;55.048;73.268;2023-11-19T15:20:44;101138.00;;;-14.43;100.00
59168;BME280;70412;55.048;73.268;2023-11-19T15:23:49;101156.56;;;-14.41;100.00
59168;BME280;70412;55.048;73.268;2023-11-19T15:26:51;101153.44;;;-14.35;100.00
59168;BME280;70412;55.048;73.268;2023-11-19T15:29:53;101150.59;;;-14.43;100.00
59168;BME280;70412;55.048;73.268;2023-11-19T15:32:56;101140.19;;;-14.50;100.00
59168;BME280;70412;55.048;73.268;2023-11-19T15:35:58;101149.13;;;-14.57;100.00
59168;BME280;70412;55.048;73.268;2023-11-19T15:39:02;101151.13;;;-14.50;100.00
59168;BME280;70412;55.048;73.268;2023-11-19T15:42:04;101153.31;;;-14.57;100.00
59168;BME280;70412;55.048;73.268;2023-11-19T15:45:07;101143.97;;;-14.60;100.00
59168;BME280;70412;55.048;73.268;2023-11-19T15:48:09;101149.56;;;-14.65;100.00
59168;BME280;70412;55.048;73.268;2023-11-19T15:51:15;101163.56;;;-14.72;100.00
59168;BME280;70412;55.048;73.268;2023-11-19T15:54:19;101167.00;;;-14.70;100.00
59168;BME280;70412;55.048;73.268;2023-11-19T15:57:22;101157.41;;;-14.97;100.00
59168;BME280;70412;55.048;73.268;2023-11-19T16:00:26;101167.75;;;-14.90;100.00
59168;BME280;70412;55.048;73.268;2023-11-19T16:03:28;101162.13;;;-14.85;100.00
59168;BME280;70412;55.048;73.268;2023-11-19T16:06:31;101159.13;;;-14.95;100.00
59168;BME280;70412;55.048;73.268;2023-11-19T16:09:34;101172.00;;;-14.89;100.00
59168;BME280;70412;55.048;73.268;2023-11-19T16:12:36;101171.00;;;-14.93;100.00
59168;BME280;70412;55.048;73.268;2023-11-19T16:15:39;101173.22;;;-14.99;100.00
59168;BME280;70412;55.048;73.268;2023-11-19T16:18:41;101177.97;;;-15.05;100.00
59168;BME280;70412;55.048;73.268;2023-11-19T16:21:44;101180.78;;;-15.17;100.00
59168;BME280;70412;55.048;73.268;2023-11-19T16:24:46;101102.97;;;-15.49;100.00
59168;BME280;70412;55.048;73.268;2023-11-19T16:27:50;101194.38;;;-15.13;100.00
59168;BME280;70412;55.048;73.268;2023-11-19T16:30:52;101196.09;;;-15.12;100.00
59168;BME280;70412;55.048;73.268;2023-11-19T16:33:54;101164.47;;;-15.43;100.00
59168;BME280;70412;55.048;73.268;2023-11-19T16:36:57;101193.56;;;-15.30;100.00
59168;BME280;70412;55.048;73.268;2023-11-19T16:39:59;101161.81;;;-15.46;100.00
59168;BME280;70412;55.048;73.268;2023-11-19T16:43:01;101196.06;;;-15.30;100.00
59168;BME280;70412;55.048;73.268;2023-11-19T16:46:04;101168.88;;;-15.56;100.00
59168;BME280;70412;55.048;73.268;2023-11-19T16:49:06;101210.75;;;-15.39;100.00
59168;BME280;70412;55.048;73.268;2023-11-19T16:52:09;101212.75;;;-15.32;100.00
59168;BME280;70412;55.048;73.268;2023-11-19T16:55:11;101202.28;;;-15.41;100.00
59168;BME280;70412;55.048;73.268;2023-11-19T16:58:14;101204.66;;;-15.44;100.00
59168;BME280;70412;55.048;73.268;2023-11-19T17:01:16;101208.97;;;-15.42;100.00
59168;BME280;70412;55.048;73.268;2023-11-19T17:04:20;101211.91;;;-15.50;100.00
59168;BME280;70412;55.048;73.268;2023-11-19T17:07:22;101206.28;;;-15.45;100.00
59168;BME280;70412;55.048;73.268;2023-11-19T17:10:28;101228.00;;;-15.47;100.00
59168;BME280;70412;55.048;73.268;2023-11-19T17:13:31;101225.66;;;-15.44;100.00
59168;BME280;70412;55.048;73.268;2023-11-19T17:16:33;101225.13;;;-15.54;100.00
59168;BME280;70412;55.048;73.268;2023-11-19T17:19:38;101225.13;;;-15.54;100.00
59168;BME280;70412;55.048;73.268;2023-11-19T17:22:41;101218.22;;;-15.58;100.00
59168;BME280;70412;55.048;73.268;2023-11-19T17:25:43;101195.44;;;-15.78;100.00
59168;BME280;70412;55.048;73.268;2023-11-19T17:28:46;101210.84;;;-15.72;100.00
59168;BME280;70412;55.048;73.268;2023-11-19T17:31:48;101220.28;;;-15.68;100.00
59168;BME280;70412;55.048;73.268;2023-11-19T17:34:51;101220.34;;;-15.66;100.00
59168;BME280;70412;55.048;73.268;2023-11-19T17:37:53;101224.22;;;-15.73;100.00
59168;BME280;70412;55.048;73.268;2023-11-19T17:40:57;101227.53;;;-15.74;100.00
59168;BME280;70412;55.048;73.268;2023-11-19T17:43:59;101233.25;;;-15.76;100.00
59168;BME280;70412;55.048;73.268;2023-11-19T17:47:05;101203.81;;;-15.95;100.00
59168;BME280;70412;55.048;73.268;2023-11-19T17:50:08;101225.63;;;-15.78;100.00
59168;BME280;70412;55.048;73.268;2023-11-19T17:53:11;101225.03;;;-15.90;100.00
59168;BME280;70412;55.048;73.268;2023-11-19T17:56:13;101227.44;;;-15.75;100.00
59168;BME280;70412;55.048;73.268;2023-11-19T17:59:17;101222.72;;;-15.85;100.00
59168;BME280;70412;55.048;73.268;2023-11-19T18:02:21;101231.06;;;-15.86;100.00
59168;BME280;70412;55.048;73.268;2023-11-19T18:05:23;101227.19;;;-15.80;100.00
59168;BME280;70412;55.048;73.268;2023-11-19T18:08:26;101232.06;;;-15.83;100.00
59168;BME280;70412;55.048;73.268;2023-11-19T18:11:28;101227.84;;;-15.84;100.00
59168;BME280;70412;55.048;73.268;2023-11-19T18:14:30;101229.78;;;-15.78;100.00
59168;BME280;70412;55.048;73.268;2023-11-19T18:17:33;101208.81;;;-15.79;100.00
59168;BME280;70412;55.048;73.268;2023-11-19T18:20:35;101229.53;;;-15.67;100.00
59168;BME280;70412;55.048;73.268;2023-11-19T18:23:38;101237.47;;;-15.59;100.00
59168;BME280;70412;55.048;73.268;2023-11-19T18:26:40;101240.94;;;-15.57;100.00
59168;BME280;70412;55.048;73.268;2023-11-19T18:29:43;101240.34;;;-15.51;100.00
59168;BME280;70412;55.048;73.268;2023-11-19T18:32:49;101240.34;;;-15.51;100.00